sensor_id;sensor_type;location;lat;lon;timestamp;P1;durP1;ratioP1;P2;durP2;ratioP2
61017;SDS011;48171;51.550;5.434;2022-10-26T00:01:08;13.20;;;7.80;;
61017;SDS011;48171;51.550;5.434;2022-10-26T00:03:36;12.18;;;7.07;;
61017;SDS011;48171;51.550;5.434;2022-10-26T00:06:03;14.48;;;8.13;;
61017;SDS011;48171;51.550;5.434;2022-10-26T00:08:32;16.13;;;7.40;;
61017;SDS011;48171;51.550;5.434;2022-10-26T00:10:58;16.52;;;7.07;;
61017;SDS011;48171;51.550;5.434;2022-10-26T00:13:23;16.75;;;8.02;;
61017;SDS011;48171;51.550;5.434;2022-10-26T00:15:48;13.50;;;7.07;;
61017;SDS011;48171;51.550;5.434;2022-10-26T00:18:13;14.63;;;6.95;;
61017;SDS011;48171;51.550;5.434;2022-10-26T00:20:39;15.20;;;7.63;;
61017;SDS011;48171;51.550;5.434;2022-10-26T00:23:04;16.00;;;7.55;;
61017;SDS011;48171;51.550;5.434;2022-10-26T00:25:29;15.30;;;6.93;;
61017;SDS011;48171;51.550;5.434;2022-10-26T00:27:55;15.15;;;7.03;;
61017;SDS011;48171;51.550;5.434;2022-10-26T00:30:20;16.55;;;6.22;;
61017;SDS011;48171;51.550;5.434;2022-10-26T00:32:45;16.75;;;6.72;;
61017;SDS011;48171;51.550;5.434;2022-10-26T00:35:11;15.18;;;6.82;;
61017;SDS011;48171;51.550;5.434;2022-10-26T00:37:36;13.75;;;7.13;;
61017;SDS011;48171;51.550;5.434;2022-10-26T00:40:01;13.55;;;6.47;;
61017;SDS011;48171;51.550;5.434;2022-10-26T00:42:26;15.88;;;6.88;;
61017;SDS011;48171;51.550;5.434;2022-10-26T00:44:59;13.68;;;6.60;;
61017;SDS011;48171;51.550;5.434;2022-10-26T00:50:06;12.68;;;6.90;;
61017;SDS011;48171;51.550;5.434;2022-10-26T00:52:34;15.77;;;7.68;;
61017;SDS011;48171;51.550;5.434;2022-10-26T00:55:01;13.77;;;6.65;;
61017;SDS011;48171;51.550;5.434;2022-10-26T00:57:27;16.48;;;7.10;;
61017;SDS011;48171;51.550;5.434;2022-10-26T00:59:52;15.32;;;6.72;;
61017;SDS011;48171;51.550;5.434;2022-10-26T01:02:19;12.13;;;6.63;;
61017;SDS011;48171;51.550;5.434;2022-10-26T01:04:45;15.10;;;7.05;;
61017;SDS011;48171;51.550;5.434;2022-10-26T01:07:11;17.50;;;7.32;;
61017;SDS011;48171;51.550;5.434;2022-10-26T01:09:37;14.55;;;6.47;;
61017;SDS011;48171;51.550;5.434;2022-10-26T01:12:03;15.20;;;7.20;;
61017;SDS011;48171;51.550;5.434;2022-10-26T01:14:29;18.48;;;7.50;;
61017;SDS011;48171;51.550;5.434;2022-10-26T01:16:58;16.70;;;6.82;;
61017;SDS011;48171;51.550;5.434;2022-10-26T01:19:54;19.77;;;7.30;;
61017;SDS011;48171;51.550;5.434;2022-10-26T01:22:43;15.55;;;7.35;;
61017;SDS011;48171;51.550;5.434;2022-10-26T01:31:24;25.25;;;8.02;;
61017;SDS011;48171;51.550;5.434;2022-10-26T01:34:00;17.98;;;8.15;;
61017;SDS011;48171;51.550;5.434;2022-10-26T01:36:31;15.45;;;7.40;;
61017;SDS011;48171;51.550;5.434;2022-10-26T01:39:05;17.33;;;7.50;;
61017;SDS011;48171;51.550;5.434;2022-10-26T01:41:43;17.45;;;8.00;;
61017;SDS011;48171;51.550;5.434;2022-10-26T01:44:13;18.35;;;8.25;;
61017;SDS011;48171;51.550;5.434;2022-10-26T01:46:45;20.35;;;8.18;;
61017;SDS011;48171;51.550;5.434;2022-10-26T01:49:14;15.77;;;7.82;;
61017;SDS011;48171;51.550;5.434;2022-10-26T01:51:42;18.50;;;8.75;;
61017;SDS011;48171;51.550;5.434;2022-10-26T01:54:09;12.80;;;7.45;;
61017;SDS011;48171;51.550;5.434;2022-10-26T01:56:38;14.05;;;7.45;;
61017;SDS011;48171;51.550;5.434;2022-10-26T01:59:12;14.80;;;7.07;;
61017;SDS011;48171;51.550;5.434;2022-10-26T02:12:13;15.60;;;6.80;;
61017;SDS011;48171;51.550;5.434;2022-10-26T02:14:50;15.65;;;7.10;;
61017;SDS011;48171;51.550;5.434;2022-10-26T02:17:27;14.60;;;7.00;;
61017;SDS011;48171;51.550;5.434;2022-10-26T02:20:03;15.32;;;7.20;;
61017;SDS011;48171;51.550;5.434;2022-10-26T02:22:40;16.25;;;7.05;;
61017;SDS011;48171;51.550;5.434;2022-10-26T02:25:28;14.45;;;7.22;;
61017;SDS011;48171;51.550;5.434;2022-10-26T02:27:57;14.98;;;6.90;;
61017;SDS011;48171;51.550;5.434;2022-10-26T02:30:27;13.82;;;6.43;;
61017;SDS011;48171;51.550;5.434;2022-10-26T02:32:54;14.45;;;6.57;;
61017;SDS011;48171;51.550;5.434;2022-10-26T02:35:31;16.52;;;7.28;;
61017;SDS011;48171;51.550;5.434;2022-10-26T02:38:00;13.88;;;7.25;;
61017;SDS011;48171;51.550;5.434;2022-10-26T02:40:28;17.33;;;7.22;;
61017;SDS011;48171;51.550;5.434;2022-10-26T02:42:56;15.85;;;7.32;;
61017;SDS011;48171;51.550;5.434;2022-10-26T02:45:26;16.08;;;6.95;;
61017;SDS011;48171;51.550;5.434;2022-10-26T02:47:57;16.20;;;7.07;;
61017;SDS011;48171;51.550;5.434;2022-10-26T02:50:23;14.80;;;7.13;;
61017;SDS011;48171;51.550;5.434;2022-10-26T02:53:01;15.85;;;7.18;;
61017;SDS011;48171;51.550;5.434;2022-10-26T02:55:47;13.88;;;6.72;;
61017;SDS011;48171;51.550;5.434;2022-10-26T02:58:16;17.98;;;6.97;;
61017;SDS011;48171;51.550;5.434;2022-10-26T03:00:46;15.65;;;6.38;;
61017;SDS011;48171;51.550;5.434;2022-10-26T03:03:13;18.27;;;6.75;;
61017;SDS011;48171;51.550;5.434;2022-10-26T03:05:40;15.18;;;6.75;;
61017;SDS011;48171;51.550;5.434;2022-10-26T03:08:07;15.43;;;6.57;;
61017;SDS011;48171;51.550;5.434;2022-10-26T03:10:33;14.85;;;6.97;;
61017;SDS011;48171;51.550;5.434;2022-10-26T03:13:04;14.82;;;6.57;;
61017;SDS011;48171;51.550;5.434;2022-10-26T03:15:29;17.00;;;6.22;;
61017;SDS011;48171;51.550;5.434;2022-10-26T03:17:55;15.35;;;6.45;;
61017;SDS011;48171;51.550;5.434;2022-10-26T03:20:20;12.90;;;6.70;;
61017;SDS011;48171;51.550;5.434;2022-10-26T03:22:46;13.90;;;6.30;;
61017;SDS011;48171;51.550;5.434;2022-10-26T03:25:12;13.85;;;6.60;;
61017;SDS011;48171;51.550;5.434;2022-10-26T03:27:39;15.18;;;5.78;;
61017;SDS011;48171;51.550;5.434;2022-10-26T03:30:05;12.98;;;6.07;;
61017;SDS011;48171;51.550;5.434;2022-10-26T03:32:30;12.93;;;6.20;;
61017;SDS011;48171;51.550;5.434;2022-10-26T03:34:56;14.65;;;6.18;;
61017;SDS011;48171;51.550;5.434;2022-10-26T03:37:21;14.27;;;5.97;;
61017;SDS011;48171;51.550;5.434;2022-10-26T03:39:46;11.93;;;5.75;;
61017;SDS011;48171;51.550;5.434;2022-10-26T03:42:11;15.13;;;5.85;;
61017;SDS011;48171;51.550;5.434;2022-10-26T03:44:37;13.30;;;5.57;;
61017;SDS011;48171;51.550;5.434;2022-10-26T03:47:02;10.73;;;5.78;;
61017;SDS011;48171;51.550;5.434;2022-10-26T03:49:27;12.73;;;5.65;;
61017;SDS011;48171;51.550;5.434;2022-10-26T03:51:52;17.02;;;5.68;;
61017;SDS011;48171;51.550;5.434;2022-10-26T03:54:18;10.32;;;4.80;;
61017;SDS011;48171;51.550;5.434;2022-10-26T03:56:43;12.25;;;5.55;;
61017;SDS011;48171;51.550;5.434;2022-10-26T03:59:08;16.35;;;5.22;;
61017;SDS011;48171;51.550;5.434;2022-10-26T04:01:33;15.48;;;5.32;;
61017;SDS011;48171;51.550;5.434;2022-10-26T04:03:59;13.43;;;5.53;;
61017;SDS011;48171;51.550;5.434;2022-10-26T04:06:24;9.80;;;5.10;;
61017;SDS011;48171;51.550;5.434;2022-10-26T04:08:50;12.48;;;5.72;;
61017;SDS011;48171;51.550;5.434;2022-10-26T04:11:17;11.60;;;5.00;;
61017;SDS011;48171;51.550;5.434;2022-10-26T04:13:42;10.35;;;5.05;;
61017;SDS011;48171;51.550;5.434;2022-10-26T04:16:08;12.10;;;5.03;;
61017;SDS011;48171;51.550;5.434;2022-10-26T04:18:33;11.85;;;5.35;;
61017;SDS011;48171;51.550;5.434;2022-10-26T04:21:01;12.50;;;5.68;;
61017;SDS011;48171;51.550;5.434;2022-10-26T04:23:26;9.63;;;4.85;;
61017;SDS011;48171;51.550;5.434;2022-10-26T04:25:51;14.43;;;5.25;;
61017;SDS011;48171;51.550;5.434;2022-10-26T04:28:17;12.45;;;4.70;;
61017;SDS011;48171;51.550;5.434;2022-10-26T04:30:42;12.95;;;5.05;;
61017;SDS011;48171;51.550;5.434;2022-10-26T04:33:07;11.25;;;4.25;;
61017;SDS011;48171;51.550;5.434;2022-10-26T04:35:33;12.32;;;5.10;;
61017;SDS011;48171;51.550;5.434;2022-10-26T04:37:59;8.35;;;4.40;;
61017;SDS011;48171;51.550;5.434;2022-10-26T04:40:26;13.30;;;5.32;;
61017;SDS011;48171;51.550;5.434;2022-10-26T04:42:52;14.27;;;4.82;;
61017;SDS011;48171;51.550;5.434;2022-10-26T04:45:18;8.93;;;4.50;;
61017;SDS011;48171;51.550;5.434;2022-10-26T04:47:43;11.68;;;5.30;;
61017;SDS011;48171;51.550;5.434;2022-10-26T04:50:09;12.35;;;5.07;;
61017;SDS011;48171;51.550;5.434;2022-10-26T04:52:36;12.05;;;4.95;;
61017;SDS011;48171;51.550;5.434;2022-10-26T04:55:02;14.85;;;4.72;;
61017;SDS011;48171;51.550;5.434;2022-10-26T04:57:30;15.65;;;5.47;;
61017;SDS011;48171;51.550;5.434;2022-10-26T04:59:58;13.35;;;5.30;;
61017;SDS011;48171;51.550;5.434;2022-10-26T05:02:24;12.13;;;4.60;;
61017;SDS011;48171;51.550;5.434;2022-10-26T05:04:51;12.55;;;4.75;;
61017;SDS011;48171;51.550;5.434;2022-10-26T05:07:16;13.55;;;4.72;;
61017;SDS011;48171;51.550;5.434;2022-10-26T05:09:41;12.00;;;4.40;;
61017;SDS011;48171;51.550;5.434;2022-10-26T05:12:07;11.70;;;4.70;;
61017;SDS011;48171;51.550;5.434;2022-10-26T05:14:32;10.30;;;4.57;;
61017;SDS011;48171;51.550;5.434;2022-10-26T05:16:57;10.00;;;4.40;;
61017;SDS011;48171;51.550;5.434;2022-10-26T05:19:23;13.38;;;4.82;;
61017;SDS011;48171;51.550;5.434;2022-10-26T05:21:48;10.65;;;4.40;;
61017;SDS011;48171;51.550;5.434;2022-10-26T05:24:13;10.82;;;3.90;;
61017;SDS011;48171;51.550;5.434;2022-10-26T05:26:38;11.98;;;5.03;;
61017;SDS011;48171;51.550;5.434;2022-10-26T05:29:04;10.05;;;4.68;;
61017;SDS011;48171;51.550;5.434;2022-10-26T05:31:29;10.98;;;4.47;;
61017;SDS011;48171;51.550;5.434;2022-10-26T05:33:54;11.52;;;4.43;;
61017;SDS011;48171;51.550;5.434;2022-10-26T05:36:20;8.80;;;4.68;;
61017;SDS011;48171;51.550;5.434;2022-10-26T05:38:45;12.95;;;5.07;;
61017;SDS011;48171;51.550;5.434;2022-10-26T05:41:11;16.58;;;5.15;;
61017;SDS011;48171;51.550;5.434;2022-10-26T05:43:36;12.07;;;4.60;;
61017;SDS011;48171;51.550;5.434;2022-10-26T05:46:01;10.35;;;4.85;;
61017;SDS011;48171;51.550;5.434;2022-10-26T05:48:27;12.98;;;4.53;;
61017;SDS011;48171;51.550;5.434;2022-10-26T05:50:52;12.45;;;4.50;;
61017;SDS011;48171;51.550;5.434;2022-10-26T05:53:18;9.70;;;4.78;;
61017;SDS011;48171;51.550;5.434;2022-10-26T05:55:44;8.55;;;4.13;;
61017;SDS011;48171;51.550;5.434;2022-10-26T05:58:12;14.13;;;4.63;;
61017;SDS011;48171;51.550;5.434;2022-10-26T06:01:04;9.88;;;4.97;;
61017;SDS011;48171;51.550;5.434;2022-10-26T06:06:21;11.27;;;4.80;;
61017;SDS011;48171;51.550;5.434;2022-10-26T06:08:46;11.52;;;4.90;;
61017;SDS011;48171;51.550;5.434;2022-10-26T06:11:12;14.02;;;4.72;;
61017;SDS011;48171;51.550;5.434;2022-10-26T06:13:38;12.60;;;5.20;;
61017;SDS011;48171;51.550;5.434;2022-10-26T06:19:05;12.15;;;4.70;;
61017;SDS011;48171;51.550;5.434;2022-10-26T06:21:43;11.93;;;4.20;;
61017;SDS011;48171;51.550;5.434;2022-10-26T06:24:25;11.93;;;4.45;;
61017;SDS011;48171;51.550;5.434;2022-10-26T06:29:54;11.25;;;4.70;;
61017;SDS011;48171;51.550;5.434;2022-10-26T06:32:24;11.30;;;4.60;;
61017;SDS011;48171;51.550;5.434;2022-10-26T06:34:50;13.25;;;4.60;;
61017;SDS011;48171;51.550;5.434;2022-10-26T06:37:19;9.82;;;4.35;;
61017;SDS011;48171;51.550;5.434;2022-10-26T06:39:45;12.63;;;4.32;;
61017;SDS011;48171;51.550;5.434;2022-10-26T06:42:13;10.07;;;4.22;;
61017;SDS011;48171;51.550;5.434;2022-10-26T06:44:39;13.35;;;4.47;;
61017;SDS011;48171;51.550;5.434;2022-10-26T06:47:05;12.50;;;5.00;;
61017;SDS011;48171;51.550;5.434;2022-10-26T06:49:38;12.07;;;4.75;;
61017;SDS011;48171;51.550;5.434;2022-10-26T06:52:11;9.60;;;4.22;;
61017;SDS011;48171;51.550;5.434;2022-10-26T06:57:19;13.02;;;4.82;;
61017;SDS011;48171;51.550;5.434;2022-10-26T06:59:52;9.48;;;4.60;;
61017;SDS011;48171;51.550;5.434;2022-10-26T07:02:21;11.80;;;4.70;;
61017;SDS011;48171;51.550;5.434;2022-10-26T07:04:47;10.38;;;5.00;;
61017;SDS011;48171;51.550;5.434;2022-10-26T07:07:13;10.65;;;4.30;;
61017;SDS011;48171;51.550;5.434;2022-10-26T07:09:43;8.95;;;4.70;;
61017;SDS011;48171;51.550;5.434;2022-10-26T07:12:08;11.25;;;4.75;;
61017;SDS011;48171;51.550;5.434;2022-10-26T07:14:34;11.13;;;4.88;;
61017;SDS011;48171;51.550;5.434;2022-10-26T07:16:59;13.63;;;5.03;;
61017;SDS011;48171;51.550;5.434;2022-10-26T07:19:24;10.52;;;4.75;;
61017;SDS011;48171;51.550;5.434;2022-10-26T07:21:50;13.60;;;5.20;;
61017;SDS011;48171;51.550;5.434;2022-10-26T07:24:15;14.90;;;5.22;;
61017;SDS011;48171;51.550;5.434;2022-10-26T07:26:40;12.05;;;4.97;;
61017;SDS011;48171;51.550;5.434;2022-10-26T07:29:05;14.38;;;5.70;;
61017;SDS011;48171;51.550;5.434;2022-10-26T07:31:31;11.70;;;5.15;;
61017;SDS011;48171;51.550;5.434;2022-10-26T07:33:56;11.00;;;5.13;;
61017;SDS011;48171;51.550;5.434;2022-10-26T07:36:21;11.20;;;4.97;;
61017;SDS011;48171;51.550;5.434;2022-10-26T07:38:49;12.70;;;5.72;;
61017;SDS011;48171;51.550;5.434;2022-10-26T07:41:15;14.90;;;5.75;;
61017;SDS011;48171;51.550;5.434;2022-10-26T07:43:41;14.25;;;5.57;;
61017;SDS011;48171;51.550;5.434;2022-10-26T07:46:09;14.70;;;6.22;;
61017;SDS011;48171;51.550;5.434;2022-10-26T07:48:34;13.85;;;5.53;;
61017;SDS011;48171;51.550;5.434;2022-10-26T07:51:00;11.30;;;5.82;;
61017;SDS011;48171;51.550;5.434;2022-10-26T07:53:26;14.65;;;6.53;;
61017;SDS011;48171;51.550;5.434;2022-10-26T07:55:53;17.38;;;6.70;;
61017;SDS011;48171;51.550;5.434;2022-10-26T07:58:19;16.40;;;6.70;;
61017;SDS011;48171;51.550;5.434;2022-10-26T08:00:47;11.98;;;5.97;;
61017;SDS011;48171;51.550;5.434;2022-10-26T08:03:13;16.67;;;5.60;;
61017;SDS011;48171;51.550;5.434;2022-10-26T08:05:38;14.32;;;5.97;;
61017;SDS011;48171;51.550;5.434;2022-10-26T08:08:04;13.88;;;5.45;;
61017;SDS011;48171;51.550;5.434;2022-10-26T08:10:29;12.88;;;4.63;;
61017;SDS011;48171;51.550;5.434;2022-10-26T08:12:54;11.63;;;4.45;;
61017;SDS011;48171;51.550;5.434;2022-10-26T08:15:20;9.82;;;4.70;;
61017;SDS011;48171;51.550;5.434;2022-10-26T08:17:45;11.45;;;4.95;;
61017;SDS011;48171;51.550;5.434;2022-10-26T08:20:10;9.63;;;4.20;;
61017;SDS011;48171;51.550;5.434;2022-10-26T08:22:36;10.65;;;5.22;;
61017;SDS011;48171;51.550;5.434;2022-10-26T08:25:01;15.18;;;5.30;;
61017;SDS011;48171;51.550;5.434;2022-10-26T08:27:26;9.85;;;4.30;;
61017;SDS011;48171;51.550;5.434;2022-10-26T08:29:51;11.80;;;4.60;;
61017;SDS011;48171;51.550;5.434;2022-10-26T08:32:17;13.13;;;4.57;;
61017;SDS011;48171;51.550;5.434;2022-10-26T08:34:42;13.95;;;4.60;;
61017;SDS011;48171;51.550;5.434;2022-10-26T08:37:07;12.30;;;4.10;;
61017;SDS011;48171;51.550;5.434;2022-10-26T08:39:32;13.18;;;4.68;;
61017;SDS011;48171;51.550;5.434;2022-10-26T08:42:21;9.45;;;4.20;;
61017;SDS011;48171;51.550;5.434;2022-10-26T08:44:49;12.10;;;4.60;;
61017;SDS011;48171;51.550;5.434;2022-10-26T08:47:23;16.90;;;4.63;;
61017;SDS011;48171;51.550;5.434;2022-10-26T08:49:57;12.18;;;4.28;;
61017;SDS011;48171;51.550;5.434;2022-10-26T08:52:31;11.82;;;4.25;;
61017;SDS011;48171;51.550;5.434;2022-10-26T08:55:02;12.50;;;4.35;;
61017;SDS011;48171;51.550;5.434;2022-10-26T08:57:35;9.07;;;4.25;;
61017;SDS011;48171;51.550;5.434;2022-10-26T09:00:10;8.95;;;4.13;;
61017;SDS011;48171;51.550;5.434;2022-10-26T09:02:39;10.18;;;4.10;;
61017;SDS011;48171;51.550;5.434;2022-10-26T09:05:05;10.60;;;4.38;;
61017;SDS011;48171;51.550;5.434;2022-10-26T09:15:59;9.50;;;3.85;;
61017;SDS011;48171;51.550;5.434;2022-10-26T09:29:37;12.68;;;4.60;;
61017;SDS011;48171;51.550;5.434;2022-10-26T09:32:05;10.38;;;4.30;;
61017;SDS011;48171;51.550;5.434;2022-10-26T09:34:45;10.60;;;4.18;;
61017;SDS011;48171;51.550;5.434;2022-10-26T09:37:18;7.63;;;3.50;;
61017;SDS011;48171;51.550;5.434;2022-10-26T09:39:59;13.93;;;4.50;;
61017;SDS011;48171;51.550;5.434;2022-10-26T09:42:40;9.88;;;3.85;;
61017;SDS011;48171;51.550;5.434;2022-10-26T09:45:29;14.52;;;4.35;;
61017;SDS011;48171;51.550;5.434;2022-10-26T09:47:58;13.10;;;3.90;;
61017;SDS011;48171;51.550;5.434;2022-10-26T09:50:34;10.32;;;4.30;;
61017;SDS011;48171;51.550;5.434;2022-10-26T09:53:01;9.60;;;4.20;;
61017;SDS011;48171;51.550;5.434;2022-10-26T09:55:29;9.98;;;4.00;;
61017;SDS011;48171;51.550;5.434;2022-10-26T09:57:57;9.35;;;4.22;;
61017;SDS011;48171;51.550;5.434;2022-10-26T10:00:25;10.70;;;4.05;;
61017;SDS011;48171;51.550;5.434;2022-10-26T10:02:53;12.10;;;4.10;;
61017;SDS011;48171;51.550;5.434;2022-10-26T10:07:45;8.88;;;4.28;;
61017;SDS011;48171;51.550;5.434;2022-10-26T10:12:43;15.77;;;4.22;;
61017;SDS011;48171;51.550;5.434;2022-10-26T10:15:23;10.65;;;4.13;;
61017;SDS011;48171;51.550;5.434;2022-10-26T10:17:50;10.93;;;3.77;;
61017;SDS011;48171;51.550;5.434;2022-10-26T10:20:21;13.40;;;4.72;;
61017;SDS011;48171;51.550;5.434;2022-10-26T10:22:59;14.02;;;4.25;;
61017;SDS011;48171;51.550;5.434;2022-10-26T10:25:38;11.60;;;4.68;;
61017;SDS011;48171;51.550;5.434;2022-10-26T10:28:23;9.60;;;4.95;;
61017;SDS011;48171;51.550;5.434;2022-10-26T10:30:54;13.48;;;4.25;;
61017;SDS011;48171;51.550;5.434;2022-10-26T10:36:01;10.45;;;4.20;;
61017;SDS011;48171;51.550;5.434;2022-10-26T10:38:30;10.50;;;3.70;;
61017;SDS011;48171;51.550;5.434;2022-10-26T10:41:01;12.40;;;4.15;;
61017;SDS011;48171;51.550;5.434;2022-10-26T10:43:28;9.32;;;3.83;;
61017;SDS011;48171;51.550;5.434;2022-10-26T10:45:54;12.30;;;4.00;;
61017;SDS011;48171;51.550;5.434;2022-10-26T10:48:22;8.82;;;3.85;;
61017;SDS011;48171;51.550;5.434;2022-10-26T10:50:55;11.25;;;4.25;;
61017;SDS011;48171;51.550;5.434;2022-10-26T11:01:47;9.82;;;4.10;;
61017;SDS011;48171;51.550;5.434;2022-10-26T11:04:38;8.80;;;4.25;;
61017;SDS011;48171;51.550;5.434;2022-10-26T11:07:17;9.10;;;4.20;;
61017;SDS011;48171;51.550;5.434;2022-10-26T11:09:45;9.93;;;4.68;;
61017;SDS011;48171;51.550;5.434;2022-10-26T11:12:29;13.07;;;4.70;;
61017;SDS011;48171;51.550;5.434;2022-10-26T11:14:59;12.05;;;3.88;;
61017;SDS011;48171;51.550;5.434;2022-10-26T11:17:30;11.30;;;4.47;;
61017;SDS011;48171;51.550;5.434;2022-10-26T11:20:07;8.05;;;4.20;;
61017;SDS011;48171;51.550;5.434;2022-10-26T11:22:41;10.38;;;4.70;;
61017;SDS011;48171;51.550;5.434;2022-10-26T11:25:37;9.77;;;4.28;;
61017;SDS011;48171;51.550;5.434;2022-10-26T11:28:30;11.23;;;4.85;;
61017;SDS011;48171;51.550;5.434;2022-10-26T11:30:59;11.80;;;4.78;;
61017;SDS011;48171;51.550;5.434;2022-10-26T11:33:33;10.35;;;6.28;;
61017;SDS011;48171;51.550;5.434;2022-10-26T11:36:15;10.90;;;6.97;;
61017;SDS011;48171;51.550;5.434;2022-10-26T11:41:15;13.60;;;7.07;;
61017;SDS011;48171;51.550;5.434;2022-10-26T11:44:00;10.07;;;7.10;;
61017;SDS011;48171;51.550;5.434;2022-10-26T11:49:05;12.13;;;5.47;;
61017;SDS011;48171;51.550;5.434;2022-10-26T11:51:37;10.48;;;5.40;;
61017;SDS011;48171;51.550;5.434;2022-10-26T11:54:09;8.23;;;4.30;;
61017;SDS011;48171;51.550;5.434;2022-10-26T11:56:41;8.90;;;4.70;;
61017;SDS011;48171;51.550;5.434;2022-10-26T11:59:16;10.50;;;4.60;;
61017;SDS011;48171;51.550;5.434;2022-10-26T12:01:46;7.00;;;4.50;;
61017;SDS011;48171;51.550;5.434;2022-10-26T12:04:14;9.43;;;4.82;;
61017;SDS011;48171;51.550;5.434;2022-10-26T12:06:41;9.32;;;4.25;;
61017;SDS011;48171;51.550;5.434;2022-10-26T12:09:11;10.52;;;4.00;;
61017;SDS011;48171;51.550;5.434;2022-10-26T12:11:43;8.95;;;4.30;;
61017;SDS011;48171;51.550;5.434;2022-10-26T12:14:23;7.40;;;3.88;;
61017;SDS011;48171;51.550;5.434;2022-10-26T12:17:12;10.75;;;3.58;;
61017;SDS011;48171;51.550;5.434;2022-10-26T12:22:50;7.60;;;3.38;;
61017;SDS011;48171;51.550;5.434;2022-10-26T12:43:36;8.90;;;2.88;;
61017;SDS011;48171;51.550;5.434;2022-10-26T12:53:53;4.97;;;2.45;;
61017;SDS011;48171;51.550;5.434;2022-10-26T12:56:23;7.18;;;2.22;;
61017;SDS011;48171;51.550;5.434;2022-10-26T12:59:02;6.10;;;2.35;;
61017;SDS011;48171;51.550;5.434;2022-10-26T13:04:28;7.32;;;2.40;;
61017;SDS011;48171;51.550;5.434;2022-10-26T13:09:34;5.95;;;2.15;;
61017;SDS011;48171;51.550;5.434;2022-10-26T13:12:01;5.38;;;2.05;;
61017;SDS011;48171;51.550;5.434;2022-10-26T13:14:30;11.52;;;2.53;;
61017;SDS011;48171;51.550;5.434;2022-10-26T13:16:59;7.07;;;2.20;;
61017;SDS011;48171;51.550;5.434;2022-10-26T13:19:29;6.47;;;2.53;;
61017;SDS011;48171;51.550;5.434;2022-10-26T13:22:11;7.78;;;2.42;;
61017;SDS011;48171;51.550;5.434;2022-10-26T13:24:52;5.88;;;2.10;;
61017;SDS011;48171;51.550;5.434;2022-10-26T13:27:20;5.60;;;2.03;;
61017;SDS011;48171;51.550;5.434;2022-10-26T13:32:27;7.50;;;1.98;;
61017;SDS011;48171;51.550;5.434;2022-10-26T13:34:55;9.65;;;2.33;;
61017;SDS011;48171;51.550;5.434;2022-10-26T13:37:24;7.28;;;2.13;;
61017;SDS011;48171;51.550;5.434;2022-10-26T13:39:53;4.78;;;2.10;;
61017;SDS011;48171;51.550;5.434;2022-10-26T13:42:20;5.72;;;2.15;;
61017;SDS011;48171;51.550;5.434;2022-10-26T13:44:51;6.50;;;2.00;;
61017;SDS011;48171;51.550;5.434;2022-10-26T13:49:49;4.25;;;1.92;;
61017;SDS011;48171;51.550;5.434;2022-10-26T13:52:18;10.48;;;2.80;;
61017;SDS011;48171;51.550;5.434;2022-10-26T13:54:56;9.75;;;2.72;;
61017;SDS011;48171;51.550;5.434;2022-10-26T13:57:42;5.82;;;2.10;;
61017;SDS011;48171;51.550;5.434;2022-10-26T14:02:45;5.30;;;2.38;;
61017;SDS011;48171;51.550;5.434;2022-10-26T14:05:12;6.57;;;2.20;;
61017;SDS011;48171;51.550;5.434;2022-10-26T14:07:40;6.13;;;2.08;;
61017;SDS011;48171;51.550;5.434;2022-10-26T14:13:12;5.80;;;1.70;;
61017;SDS011;48171;51.550;5.434;2022-10-26T14:18:10;8.13;;;1.88;;
61017;SDS011;48171;51.550;5.434;2022-10-26T14:20:41;5.18;;;1.63;;
61017;SDS011;48171;51.550;5.434;2022-10-26T14:23:26;5.80;;;1.67;;
61017;SDS011;48171;51.550;5.434;2022-10-26T14:26:16;4.38;;;1.90;;
61017;SDS011;48171;51.550;5.434;2022-10-26T14:28:44;6.15;;;2.00;;
61017;SDS011;48171;51.550;5.434;2022-10-26T14:31:47;6.70;;;2.05;;
61017;SDS011;48171;51.550;5.434;2022-10-26T14:34:05;8.40;;;2.30;;
61017;SDS011;48171;51.550;5.434;2022-10-26T14:36:32;6.70;;;2.00;;
61017;SDS011;48171;51.550;5.434;2022-10-26T14:39:04;7.32;;;1.98;;
61017;SDS011;48171;51.550;5.434;2022-10-26T14:41:33;6.53;;;1.95;;
61017;SDS011;48171;51.550;5.434;2022-10-26T14:44:00;4.85;;;2.13;;
61017;SDS011;48171;51.550;5.434;2022-10-26T14:46:26;6.40;;;2.17;;
61017;SDS011;48171;51.550;5.434;2022-10-26T14:48:57;5.47;;;2.00;;
61017;SDS011;48171;51.550;5.434;2022-10-26T14:51:26;5.30;;;2.05;;
61017;SDS011;48171;51.550;5.434;2022-10-26T14:53:53;4.72;;;1.95;;
61017;SDS011;48171;51.550;5.434;2022-10-26T14:59:09;7.25;;;2.53;;
61017;SDS011;48171;51.550;5.434;2022-10-26T15:01:54;5.93;;;2.00;;
61017;SDS011;48171;51.550;5.434;2022-10-26T15:09:45;7.65;;;2.10;;
61017;SDS011;48171;51.550;5.434;2022-10-26T15:12:18;7.75;;;2.75;;
61017;SDS011;48171;51.550;5.434;2022-10-26T15:14:44;5.80;;;2.10;;
61017;SDS011;48171;51.550;5.434;2022-10-26T15:17:14;7.63;;;2.47;;
61017;SDS011;48171;51.550;5.434;2022-10-26T15:19:46;7.50;;;2.42;;
61017;SDS011;48171;51.550;5.434;2022-10-26T15:22:25;9.35;;;2.40;;
61017;SDS011;48171;51.550;5.434;2022-10-26T15:24:53;9.55;;;2.42;;
61017;SDS011;48171;51.550;5.434;2022-10-26T15:27:22;8.83;;;2.50;;
61017;SDS011;48171;51.550;5.434;2022-10-26T15:29:49;8.70;;;2.50;;
61017;SDS011;48171;51.550;5.434;2022-10-26T15:32:17;8.13;;;2.47;;
61017;SDS011;48171;51.550;5.434;2022-10-26T15:34:48;6.93;;;2.10;;
61017;SDS011;48171;51.550;5.434;2022-10-26T15:37:29;10.38;;;2.40;;
61017;SDS011;48171;51.550;5.434;2022-10-26T15:39:54;5.55;;;2.15;;
61017;SDS011;48171;51.550;5.434;2022-10-26T15:42:23;6.72;;;2.50;;
61017;SDS011;48171;51.550;5.434;2022-10-26T15:44:50;5.85;;;1.98;;
61017;SDS011;48171;51.550;5.434;2022-10-26T15:47:17;4.50;;;2.08;;
61017;SDS011;48171;51.550;5.434;2022-10-26T15:49:46;7.07;;;2.20;;
61017;SDS011;48171;51.550;5.434;2022-10-26T15:52:12;6.85;;;2.13;;
61017;SDS011;48171;51.550;5.434;2022-10-26T15:54:37;7.65;;;2.53;;
61017;SDS011;48171;51.550;5.434;2022-10-26T15:57:02;7.68;;;2.22;;
61017;SDS011;48171;51.550;5.434;2022-10-26T15:59:28;3.92;;;1.90;;
61017;SDS011;48171;51.550;5.434;2022-10-26T16:01:53;9.88;;;2.22;;
61017;SDS011;48171;51.550;5.434;2022-10-26T16:04:18;11.40;;;2.25;;
61017;SDS011;48171;51.550;5.434;2022-10-26T16:06:44;8.90;;;2.50;;
61017;SDS011;48171;51.550;5.434;2022-10-26T16:09:12;6.88;;;2.40;;
61017;SDS011;48171;51.550;5.434;2022-10-26T16:11:40;8.48;;;2.17;;
61017;SDS011;48171;51.550;5.434;2022-10-26T16:14:05;14.05;;;2.40;;
61017;SDS011;48171;51.550;5.434;2022-10-26T16:16:31;8.13;;;2.13;;
61017;SDS011;48171;51.550;5.434;2022-10-26T16:18:56;10.57;;;2.42;;
61017;SDS011;48171;51.550;5.434;2022-10-26T16:21:22;11.50;;;2.25;;
61017;SDS011;48171;51.550;5.434;2022-10-26T16:23:49;7.18;;;2.30;;
61017;SDS011;48171;51.550;5.434;2022-10-26T16:26:19;6.90;;;2.50;;
61017;SDS011;48171;51.550;5.434;2022-10-26T16:28:45;4.97;;;2.13;;
61017;SDS011;48171;51.550;5.434;2022-10-26T16:31:12;6.00;;;2.50;;
61017;SDS011;48171;51.550;5.434;2022-10-26T16:33:39;7.10;;;2.35;;
61017;SDS011;48171;51.550;5.434;2022-10-26T16:36:05;7.97;;;2.50;;
61017;SDS011;48171;51.550;5.434;2022-10-26T16:38:31;10.65;;;2.30;;
61017;SDS011;48171;51.550;5.434;2022-10-26T16:43:31;5.30;;;2.25;;
61017;SDS011;48171;51.550;5.434;2022-10-26T16:45:57;7.97;;;2.40;;
61017;SDS011;48171;51.550;5.434;2022-10-26T16:48:24;6.88;;;2.40;;
61017;SDS011;48171;51.550;5.434;2022-10-26T16:50:49;10.93;;;2.67;;
61017;SDS011;48171;51.550;5.434;2022-10-26T16:53:14;6.95;;;3.03;;
61017;SDS011;48171;51.550;5.434;2022-10-26T16:55:40;7.53;;;2.72;;
61017;SDS011;48171;51.550;5.434;2022-10-26T16:58:05;7.80;;;3.13;;
61017;SDS011;48171;51.550;5.434;2022-10-26T17:00:30;6.95;;;2.75;;